Bulk Hong Kong — 3EEW4 — position and weather

sailwx.info

Track history (hours):
 
Tides and Currents Weather Stations Pressure Air Temp Water Temp Dewpoint Dewpoint Depression Visibility Wind Speed Wind Dir Waves Ship Positions

Bulk Hong Kong

Last reported at 2016-Feb-13 09:11 UTC. Time now 2016-Feb-13 21:29 UTC.
Position S 20°38' E 116°43'.

Length 289 m; draft 8.5 m.

Type: Cargo ship. MMSI: 371828000.

Date/timePositionNaut miles runAvg speedWind from/ knotsBaromVisibWave heightAir tempDewpointWater temp
2016-Feb-13 09:11S 20°38' E 116°43'0 0.0
2016-Feb-12 23:11S 20°38' E 116°43'0 0.0
2016-Feb-12 22:29S 20°38' E 116°43'0 0.0
2016-Feb-12 20:05S 20°38' E 116°43'0 0.0
2016-Feb-12 18:23S 20°38' E 116°43'0 0.0
2016-Feb-12 17:17S 20°38' E 116°43'0 0.5
2016-Feb-12 16:33S 20°38' E 116°43'8 8.2
2016-Feb-12 15:33S 20°30' E 116°43'6 6.3
2016-Feb-12 14:32S 20°24' E 116°40'6 6.3
2016-Feb-12 13:33S 20°25' E 116°34'0 0.3
2016-Feb-12 12:25S 20°25' E 116°34'0 0.0
2016-Feb-12 11:19S 20°25' E 116°34'0 0.0
2016-Feb-12 10:13S 20°25' E 116°34'0 0.0
2016-Feb-12 08:19S 20°25' E 116°34'0 0.0
2016-Feb-12 03:19S 20°25' E 116°34'0 0.0
2016-Feb-12 02:31S 20°25' E 116°34'0 0.0
2016-Feb-12 01:25S 20°25' E 116°34'0 0.0
2016-Feb-11 18:19S 20°24' E 116°34'0 0.1
2016-Feb-11 17:31S 20°24' E 116°34'0 0.0
2016-Feb-11 16:31S 20°25' E 116°34'0 0.1
2016-Feb-11 15:19S 20°25' E 116°34'0 0.0
2016-Feb-11 14:07S 20°25' E 116°34'0 0.0
2016-Feb-11 13:25S 20°25' E 116°34'0 0.0
2016-Feb-11 12:31S 20°25' E 116°34'0 0.1
2016-Feb-11 10:25S 20°25' E 116°34'0 0.0
2016-Feb-11 06:31S 20°25' E 116°34'0 0.0
2016-Feb-11 03:25S 20°25' E 116°34'0 0.0
2016-Feb-11 01:19S 20°25' E 116°34'0 0.0
2016-Feb-11 00:31S 20°25' E 116°34'0 0.1
2016-Feb-10 21:25S 20°24' E 116°34'0 0.1
2016-Feb-10 20:31S 20°24' E 116°34'0 0.1
2016-Feb-10 19:25S 20°25' E 116°34'0 0.1
2016-Feb-10 18:25S 20°24' E 116°34'0 0.2
2016-Feb-10 17:31S 20°25' E 116°34'0 0.0
2016-Feb-10 16:25S 20°25' E 116°34'0 0.0
2016-Feb-10 15:25S 20°25' E 116°34'0 0.0
2016-Feb-10 14:13S 20°25' E 116°34'0 0.0
2016-Feb-10 13:31S 20°25' E 116°34'0 0.0
2016-Feb-10 12:25S 20°25' E 116°34'0 0.0
2016-Feb-09 12:31S 20°25' E 116°34'0 0.0
2016-Feb-09 11:25S 20°25' E 116°34'0 0.0
2016-Feb-09 09:25S 20°25' E 116°34'0 0.4
2016-Feb-09 08:33S 20°24' E 116°35'6 5.3
2016-Feb-09 07:31S 20°24' E 116°40'7 7.0
2016-Feb-09 06:33S 20°18' E 116°43'1111.4
2016-Feb-09 05:33S 20°07' E 116°47'1414.0
2016-Feb-09 04:33S 19°54' E 116°51'1414.2
2016-Feb-09 03:33S 19°39' E 116°52'1514.6
2016-Feb-09 02:33S 19°25' E 116°52'16114.3
2016-Feb-08 15:18S 16°45' E 116°36'  
2016-Feb-04 09:16N 01°18' E 104°05'1 0.7
2016-Feb-04 07:25N 01°18' E 104°04'0 0.0
2016-Feb-03 22:19N 01°18' E 104°04'0 0.0
2016-Feb-03 20:22N 01°18' E 104°04'0 0.0
2016-Feb-03 19:25N 01°18' E 104°04'0 0.0
2016-Feb-03 12:25N 01°18' E 104°04'0 0.0
2016-Feb-03 10:22N 01°18' E 104°04'2 2.9
2016-Feb-03 09:32N 01°17' E 104°06'  
Track history (hours):
 
Tides and Currents Weather Stations Pressure Air Temp Water Temp Dewpoint Dewpoint Depression Visibility Wind Speed Wind Dir Waves Ship Positions

Bulk Hong Kong

Last reported at 2016-Feb-13 09:11 UTC. Time now 2016-Feb-13 21:29 UTC.
Position S 20°38' E 116°43'.

Length 289 m; draft 8.5 m.

Type: Cargo ship. MMSI: 371828000.

Date/timePositionNaut miles runAvg speedWind from/ knotsBaromVisibWave heightAir tempDewpointWater temp
2016-Feb-13 09:11S 20°38' E 116°43'0 0.0
2016-Feb-12 23:11S 20°38' E 116°43'0 0.0
2016-Feb-12 22:29S 20°38' E 116°43'0 0.0
2016-Feb-12 20:05S 20°38' E 116°43'0 0.0
2016-Feb-12 18:23S 20°38' E 116°43'0 0.0
2016-Feb-12 17:17S 20°38' E 116°43'0 0.5
2016-Feb-12 16:33S 20°38' E 116°43'8 8.2
2016-Feb-12 15:33S 20°30' E 116°43'6 6.3
2016-Feb-12 14:32S 20°24' E 116°40'6 6.3
2016-Feb-12 13:33S 20°25' E 116°34'0 0.3
2016-Feb-12 12:25S 20°25' E 116°34'0 0.0
2016-Feb-12 11:19S 20°25' E 116°34'0 0.0
2016-Feb-12 10:13S 20°25' E 116°34'0 0.0
2016-Feb-12 08:19S 20°25' E 116°34'0 0.0
2016-Feb-12 03:19S 20°25' E 116°34'0 0.0
2016-Feb-12 02:31S 20°25' E 116°34'0 0.0
2016-Feb-12 01:25S 20°25' E 116°34'0 0.0
2016-Feb-11 18:19S 20°24' E 116°34'0 0.1
2016-Feb-11 17:31S 20°24' E 116°34'0 0.0
2016-Feb-11 16:31S 20°25' E 116°34'0 0.1
2016-Feb-11 15:19S 20°25' E 116°34'0 0.0
2016-Feb-11 14:07S 20°25' E 116°34'0 0.0
2016-Feb-11 13:25S 20°25' E 116°34'0 0.0
2016-Feb-11 12:31S 20°25' E 116°34'0 0.1
2016-Feb-11 10:25S 20°25' E 116°34'0 0.0
2016-Feb-11 06:31S 20°25' E 116°34'0 0.0
2016-Feb-11 03:25S 20°25' E 116°34'0 0.0
2016-Feb-11 01:19S 20°25' E 116°34'0 0.0
2016-Feb-11 00:31S 20°25' E 116°34'0 0.1
2016-Feb-10 21:25S 20°24' E 116°34'0 0.1
2016-Feb-10 20:31S 20°24' E 116°34'0 0.1
2016-Feb-10 19:25S 20°25' E 116°34'0 0.1
2016-Feb-10 18:25S 20°24' E 116°34'0 0.2
2016-Feb-10 17:31S 20°25' E 116°34'0 0.0
2016-Feb-10 16:25S 20°25' E 116°34'0 0.0
2016-Feb-10 15:25S 20°25' E 116°34'0 0.0
2016-Feb-10 14:13S 20°25' E 116°34'0 0.0
2016-Feb-10 13:31S 20°25' E 116°34'0 0.0
2016-Feb-10 12:25S 20°25' E 116°34'0 0.0
2016-Feb-09 12:31S 20°25' E 116°34'0 0.0
2016-Feb-09 11:25S 20°25' E 116°34'0 0.0
2016-Feb-09 09:25S 20°25' E 116°34'0 0.4
2016-Feb-09 08:33S 20°24' E 116°35'6 5.3
2016-Feb-09 07:31S 20°24' E 116°40'7 7.0
2016-Feb-09 06:33S 20°18' E 116°43'1111.4
2016-Feb-09 05:33S 20°07' E 116°47'1414.0
2016-Feb-09 04:33S 19°54' E 116°51'1414.2
2016-Feb-09 03:33S 19°39' E 116°52'1514.6
2016-Feb-09 02:33S 19°25' E 116°52'16114.3
2016-Feb-08 15:18S 16°45' E 116°36'  
2016-Feb-04 09:16N 01°18' E 104°05'1 0.7
2016-Feb-04 07:25N 01°18' E 104°04'0 0.0
2016-Feb-03 22:19N 01°18' E 104°04'0 0.0
2016-Feb-03 20:22N 01°18' E 104°04'0 0.0
2016-Feb-03 19:25N 01°18' E 104°04'0 0.0
2016-Feb-03 12:25N 01°18' E 104°04'0 0.0
2016-Feb-03 10:22N 01°18' E 104°04'2 2.9
2016-Feb-03 09:32N 01°17' E 104°06'  

Dump ship's entire track history